createdAt,value
2018-07-23T00:00:20.370Z,0.00
2018-07-23T00:01:20.356Z,0.00
2018-07-23T00:02:20.337Z,0.00
2018-07-23T00:03:20.321Z,0.00
2018-07-23T00:04:20.304Z,0.00
2018-07-23T00:05:20.289Z,0.00
2018-07-23T00:06:20.275Z,0.00
2018-07-23T00:07:20.260Z,0.00
2018-07-23T00:08:20.245Z,0.00
2018-07-23T00:09:20.228Z,0.00
2018-07-23T00:10:20.213Z,0.00
2018-07-23T00:11:20.196Z,0.00
2018-07-23T00:12:20.176Z,0.00
2018-07-23T00:13:20.160Z,0.00
2018-07-23T00:14:20.147Z,0.00
2018-07-23T00:15:20.128Z,0.00
2018-07-23T00:16:20.119Z,0.00
2018-07-23T00:17:20.090Z,0.00
2018-07-23T00:18:20.079Z,0.00
2018-07-23T00:19:20.065Z,0.00
2018-07-23T00:20:20.048Z,0.00
2018-07-23T00:21:20.142Z,0.00
2018-07-23T00:22:20.386Z,0.00
2018-07-23T00:23:20.312Z,0.00
2018-07-23T00:24:20.364Z,0.00
2018-07-23T00:25:20.096Z,0.00
2018-07-23T00:26:20.479Z,0.00
2018-07-23T00:27:20.029Z,0.00
2018-07-23T00:28:20.094Z,0.00
2018-07-23T00:29:20.088Z,0.00
2018-07-23T00:30:20.181Z,0.00
2018-07-23T00:31:20.059Z,0.00
2018-07-23T00:32:19.957Z,0.00
2018-07-23T00:33:20.152Z,0.00
2018-07-23T00:34:19.957Z,0.00
2018-07-23T00:35:20.058Z,0.00
2018-07-23T00:36:19.990Z,0.00
2018-07-23T00:37:19.847Z,0.00
2018-07-23T00:38:19.758Z,0.00
2018-07-23T00:39:19.740Z,0.00
2018-07-23T00:40:19.724Z,0.00
2018-07-23T00:41:19.704Z,0.00
2018-07-23T00:42:19.689Z,0.00
2018-07-23T00:43:19.672Z,0.00
2018-07-23T00:44:19.658Z,0.00
2018-07-23T00:45:19.641Z,0.00
2018-07-23T00:46:19.623Z,0.00
2018-07-23T00:47:19.611Z,0.00
2018-07-23T00:48:19.590Z,0.00
2018-07-23T00:49:19.576Z,0.00
2018-07-23T00:50:19.568Z,0.00
2018-07-23T00:51:19.541Z,0.00
2018-07-23T00:52:19.525Z,0.00
2018-07-23T00:53:19.510Z,0.00
2018-07-23T00:54:19.491Z,0.00
2018-07-23T00:55:19.477Z,0.00
2018-07-23T00:56:19.458Z,0.00
2018-07-23T00:57:19.442Z,0.00
2018-07-23T00:58:19.431Z,0.00
2018-07-23T00:59:19.411Z,0.00
2018-07-23T01:00:19.394Z,0.00
2018-07-23T01:01:19.379Z,0.00
2018-07-23T01:02:19.360Z,0.00
2018-07-23T01:03:19.351Z,0.00
2018-07-23T01:04:19.328Z,0.00
2018-07-23T01:05:19.312Z,0.00
2018-07-23T01:06:19.302Z,0.00
2018-07-23T01:07:19.282Z,0.00
2018-07-23T01:08:19.259Z,0.00
2018-07-23T01:09:19.248Z,0.00
2018-07-23T01:10:19.235Z,0.00
2018-07-23T01:11:19.213Z,0.00
2018-07-23T01:12:19.195Z,0.00
2018-07-23T01:13:19.184Z,0.00
2018-07-23T01:14:19.162Z,0.00
2018-07-23T01:15:19.147Z,0.00
2018-07-23T01:16:19.132Z,0.00
2018-07-23T01:17:19.112Z,0.00
2018-07-23T01:18:19.099Z,0.00
2018-07-23T01:19:19.082Z,0.00
2018-07-23T01:20:19.065Z,0.00
2018-07-23T01:21:19.045Z,0.00
2018-07-23T01:22:19.030Z,0.00
2018-07-23T01:23:19.011Z,0.00
2018-07-23T01:24:18.995Z,0.00
2018-07-23T01:25:18.977Z,0.00
2018-07-23T01:26:18.966Z,0.00
2018-07-23T01:27:18.944Z,0.00
2018-07-23T01:28:18.929Z,0.00
2018-07-23T01:29:18.913Z,0.00
2018-07-23T01:30:18.934Z,0.00
2018-07-23T01:31:18.883Z,0.00
2018-07-23T01:32:18.861Z,0.00
2018-07-23T01:33:18.845Z,0.00
2018-07-23T01:34:18.832Z,0.00
2018-07-23T01:35:18.812Z,0.00
2018-07-23T01:36:18.796Z,0.00
2018-07-23T01:37:18.777Z,0.00
2018-07-23T01:38:18.761Z,0.00
2018-07-23T01:39:18.746Z,0.00
2018-07-23T01:40:18.728Z,0.00
2018-07-23T01:41:18.713Z,0.00
2018-07-23T01:42:18.697Z,0.00
2018-07-23T01:43:18.680Z,0.00
2018-07-23T01:44:18.662Z,0.00
2018-07-23T01:45:18.648Z,0.00
2018-07-23T01:46:18.626Z,0.00
2018-07-23T01:47:18.611Z,0.00
2018-07-23T01:48:18.592Z,0.00
2018-07-23T01:49:18.576Z,0.00
2018-07-23T01:50:18.576Z,0.00
2018-07-23T01:51:18.546Z,0.00
2018-07-23T01:52:18.527Z,0.00
2018-07-23T01:53:18.510Z,0.00
2018-07-23T01:54:18.494Z,0.00
2018-07-23T01:55:18.480Z,0.00
2018-07-23T01:56:18.474Z,0.00
2018-07-23T01:57:18.443Z,0.00
2018-07-23T01:58:18.424Z,0.00
2018-07-23T01:59:18.409Z,0.00
2018-07-23T02:00:18.391Z,0.00
2018-07-23T02:01:18.375Z,0.00
2018-07-23T02:02:18.353Z,0.00
2018-07-23T02:03:18.342Z,0.00
2018-07-23T02:04:18.326Z,0.00
2018-07-23T02:05:18.307Z,0.00
2018-07-23T02:06:18.291Z,0.00
2018-07-23T02:07:18.270Z,0.00
2018-07-23T02:08:18.254Z,0.00
2018-07-23T02:09:18.236Z,0.00
2018-07-23T02:10:18.222Z,0.00
2018-07-23T02:11:18.203Z,0.00
2018-07-23T02:12:18.185Z,0.00
2018-07-23T02:13:18.168Z,0.00
2018-07-23T02:14:18.154Z,0.00
2018-07-23T02:15:18.137Z,0.00
2018-07-23T02:16:18.119Z,0.00
2018-07-23T02:17:18.098Z,0.00
2018-07-23T02:18:18.087Z,0.00
2018-07-23T02:19:18.075Z,0.00
2018-07-23T02:20:18.049Z,0.00
2018-07-23T02:21:18.031Z,0.00
2018-07-23T02:22:18.016Z,0.00
2018-07-23T02:23:18.003Z,0.00
2018-07-23T02:24:17.979Z,0.00
2018-07-23T02:25:17.963Z,0.00
2018-07-23T02:26:17.947Z,0.00
2018-07-23T02:27:17.935Z,0.00
2018-07-23T02:28:17.914Z,0.00
2018-07-23T02:29:17.904Z,0.00
2018-07-23T02:30:17.884Z,0.00
2018-07-23T02:31:17.863Z,0.00
2018-07-23T02:32:17.848Z,0.00
2018-07-23T02:33:17.829Z,0.00
2018-07-23T02:34:17.811Z,0.00
2018-07-23T02:35:17.790Z,0.00
2018-07-23T02:36:17.778Z,0.00
2018-07-23T02:37:17.759Z,0.00
2018-07-23T02:38:17.742Z,0.00
2018-07-23T02:39:17.724Z,0.00
2018-07-23T02:40:17.710Z,0.00
2018-07-23T02:41:17.691Z,0.00
2018-07-23T02:42:17.682Z,0.00
2018-07-23T02:43:17.656Z,0.00
2018-07-23T02:44:17.634Z,0.00
2018-07-23T02:45:17.618Z,0.00
2018-07-23T02:46:17.603Z,0.00
2018-07-23T02:47:17.587Z,0.00
2018-07-23T02:48:17.571Z,0.00
2018-07-23T02:49:17.550Z,0.00
2018-07-23T02:50:17.537Z,0.00
2018-07-23T02:51:17.517Z,0.00
2018-07-23T02:52:17.499Z,0.00
2018-07-23T02:53:17.484Z,0.00
2018-07-23T02:54:17.465Z,0.00
2018-07-23T02:55:17.452Z,0.00
2018-07-23T02:56:17.431Z,0.00
2018-07-23T02:57:17.411Z,0.00
2018-07-23T02:58:17.397Z,0.00
2018-07-23T02:59:17.380Z,0.00
2018-07-23T03:00:17.360Z,0.00
2018-07-23T03:01:17.352Z,0.00
2018-07-23T03:02:17.328Z,0.00
2018-07-23T03:03:17.308Z,0.00
2018-07-23T03:04:17.288Z,0.00
2018-07-23T03:05:17.275Z,0.00
2018-07-23T03:06:17.261Z,0.00
2018-07-23T03:07:17.240Z,4.00
2018-07-23T03:08:17.226Z,4.00
2018-07-23T03:09:17.203Z,0.00
2018-07-23T03:10:17.184Z,0.00
2018-07-23T03:11:17.170Z,4.00
2018-07-23T03:12:17.151Z,4.00
2018-07-23T03:13:17.138Z,0.00
2018-07-23T03:14:17.119Z,4.00
2018-07-23T03:15:17.099Z,4.00
2018-07-23T03:16:17.090Z,4.00
2018-07-23T03:17:17.065Z,8.00
2018-07-23T03:18:17.061Z,4.00
2018-07-23T03:19:17.029Z,4.00
2018-07-23T03:20:17.011Z,8.00
2018-07-23T03:21:16.995Z,12.00
2018-07-23T03:22:16.978Z,12.00
2018-07-23T03:23:16.967Z,12.00
2018-07-23T03:24:16.943Z,12.00
2018-07-23T03:25:16.926Z,16.00
2018-07-23T03:26:16.907Z,16.00
2018-07-23T03:27:16.895Z,16.00
2018-07-23T03:28:16.873Z,20.00
2018-07-23T03:29:16.854Z,20.00
2018-07-23T03:30:16.838Z,24.00
2018-07-23T03:31:16.824Z,28.00
2018-07-23T03:32:16.805Z,32.00
2018-07-23T03:33:16.782Z,36.00
2018-07-23T03:34:16.772Z,36.00
2018-07-23T03:35:16.752Z,40.00
2018-07-23T03:36:16.733Z,44.00
2018-07-23T03:37:16.718Z,52.00
2018-07-23T03:38:16.698Z,56.00
2018-07-23T03:39:16.682Z,56.00
2018-07-23T03:40:16.667Z,64.00
2018-07-23T03:41:16.645Z,68.00
2018-07-23T03:42:16.627Z,76.00
2018-07-23T03:43:16.615Z,80.00
2018-07-23T03:44:16.595Z,84.00
2018-07-23T03:45:16.576Z,92.00
2018-07-23T03:46:16.560Z,96.00
2018-07-23T03:47:16.544Z,108.00
2018-07-23T03:48:16.524Z,116.00
2018-07-23T03:49:16.504Z,124.00
2018-07-23T03:50:16.488Z,132.00
2018-07-23T03:51:16.472Z,140.00
2018-07-23T03:52:16.455Z,148.00
2018-07-23T03:53:16.437Z,164.00
2018-07-23T03:54:16.418Z,172.00
2018-07-23T03:55:16.449Z,184.00
2018-07-23T03:56:16.384Z,196.00
2018-07-23T03:57:16.363Z,204.00
2018-07-23T03:58:16.350Z,220.00
2018-07-23T03:59:16.331Z,232.00
2018-07-23T04:00:16.311Z,244.00
2018-07-23T04:01:16.297Z,256.00
2018-07-23T04:02:16.276Z,272.00
2018-07-23T04:03:16.261Z,284.00
2018-07-23T04:04:16.243Z,300.00
2018-07-23T04:05:16.225Z,316.00
2018-07-23T04:06:16.208Z,332.00
2018-07-23T04:07:16.192Z,348.00
2018-07-23T04:08:16.172Z,364.00
2018-07-23T04:09:16.154Z,380.00
2018-07-23T04:10:53.778Z,396.00
2018-07-23T04:11:16.121Z,412.00
2018-07-23T04:12:16.100Z,428.00
2018-07-23T04:13:16.083Z,440.00
2018-07-23T04:14:16.065Z,460.00
2018-07-23T04:15:16.052Z,476.00
2018-07-23T04:16:16.031Z,496.00
2018-07-23T04:17:16.013Z,516.00
2018-07-23T04:18:15.998Z,536.00
2018-07-23T04:19:15.991Z,552.00
2018-07-23T04:20:15.959Z,568.00
2018-07-23T04:21:15.943Z,588.00
2018-07-23T04:22:15.931Z,604.00
2018-07-23T04:23:15.907Z,624.00
2018-07-23T04:24:15.890Z,640.00
2018-07-23T04:25:15.873Z,668.00
2018-07-23T04:26:15.854Z,692.00
2018-07-23T04:27:15.837Z,716.00
2018-07-23T04:28:15.821Z,736.00
2018-07-23T04:29:15.799Z,756.00
2018-07-23T04:30:15.784Z,780.00
2018-07-23T04:31:15.768Z,792.00
2018-07-23T04:32:15.757Z,804.00
2018-07-23T04:33:15.733Z,820.00
2018-07-23T04:34:15.720Z,836.00
2018-07-23T04:35:15.701Z,848.00
2018-07-23T04:36:15.677Z,864.00
2018-07-23T04:37:15.659Z,876.00
2018-07-23T04:38:15.644Z,888.00
2018-07-23T04:39:15.634Z,900.00
2018-07-23T04:40:15.606Z,916.00
2018-07-23T04:41:15.594Z,928.00
2018-07-23T04:42:15.592Z,940.00
2018-07-23T04:43:15.557Z,960.00
2018-07-23T04:44:15.538Z,972.00
2018-07-23T04:45:15.522Z,984.00
2018-07-23T04:46:15.502Z,1000.00
2018-07-23T04:47:15.487Z,1016.00
2018-07-23T04:48:15.471Z,1032.00
2018-07-23T04:49:15.475Z,1040.00
2018-07-23T04:50:15.434Z,1056.00
2018-07-23T04:51:15.414Z,1068.00
2018-07-23T04:52:15.399Z,1084.00
2018-07-23T04:53:15.380Z,1096.00
2018-07-23T04:54:15.363Z,1112.00
2018-07-23T04:55:15.345Z,1120.00
2018-07-23T04:56:15.329Z,1140.00
2018-07-23T04:57:15.313Z,1144.00
2018-07-23T04:58:15.295Z,1160.00
2018-07-23T04:59:15.279Z,1172.00
2018-07-23T05:00:15.261Z,1180.00
2018-07-23T05:01:15.242Z,1188.00
2018-07-23T05:02:15.225Z,1204.00
2018-07-23T05:03:15.210Z,1216.00
2018-07-23T05:04:15.191Z,1232.00
2018-07-23T05:05:15.185Z,1248.00
2018-07-23T05:06:15.156Z,1272.00
2018-07-23T05:07:15.140Z,1308.00
2018-07-23T05:08:15.121Z,1352.00
2018-07-23T05:09:15.105Z,1404.00
2018-07-23T05:10:15.087Z,1472.00
2018-07-23T05:11:15.070Z,1548.00
2018-07-23T05:12:15.056Z,1604.00
2018-07-23T05:13:15.036Z,1676.00
2018-07-23T05:14:15.031Z,1820.00
2018-07-23T05:15:15.002Z,1880.00
2018-07-23T05:16:14.983Z,1868.00
2018-07-23T05:17:14.964Z,1872.00
2018-07-23T05:18:14.954Z,1872.00
2018-07-23T05:19:14.937Z,1884.00
2018-07-23T05:20:14.918Z,1856.00
2018-07-23T05:21:14.901Z,1808.00
2018-07-23T05:22:14.879Z,1712.00
2018-07-23T05:23:14.866Z,1620.00
2018-07-23T05:24:14.857Z,1596.00
2018-07-23T05:25:14.833Z,1564.00
2018-07-23T05:26:14.847Z,1548.00
2018-07-23T05:27:14.794Z,1536.00
2018-07-23T05:28:14.782Z,1540.00
2018-07-23T05:29:14.771Z,1548.00
2018-07-23T05:30:14.750Z,1556.00
2018-07-23T05:31:14.744Z,1564.00
2018-07-23T05:32:14.713Z,1576.00
2018-07-23T05:33:14.696Z,1588.00
2018-07-23T05:34:14.679Z,1596.00
2018-07-23T05:35:14.666Z,1604.00
2018-07-23T05:36:14.653Z,1612.00
2018-07-23T05:37:14.632Z,1616.00
2018-07-23T05:38:14.622Z,1628.00
2018-07-23T05:39:14.598Z,1636.00
2018-07-23T05:40:14.582Z,1640.00
2018-07-23T05:41:14.567Z,1656.00
2018-07-23T05:42:14.549Z,1672.00
2018-07-23T05:43:14.528Z,1680.00
2018-07-23T05:44:14.513Z,1692.00
2018-07-23T05:45:14.499Z,1708.00
2018-07-23T05:46:14.482Z,1724.00
2018-07-23T05:47:14.462Z,1744.00
2018-07-23T05:48:14.452Z,1768.00
2018-07-23T05:49:14.432Z,2100.00
2018-07-23T05:50:14.417Z,3316.00
2018-07-23T05:51:14.418Z,3964.00
2018-07-23T05:52:14.420Z,4008.00
2018-07-23T05:53:14.367Z,4052.00
2018-07-23T05:54:14.347Z,4100.00
2018-07-23T05:55:14.337Z,4164.00
2018-07-23T05:56:14.320Z,4200.00
2018-07-23T05:57:14.301Z,4252.00
2018-07-23T05:58:14.286Z,4296.00
2018-07-23T05:59:14.271Z,4320.00
2018-07-23T06:00:14.254Z,4400.00
2018-07-23T06:01:14.239Z,4460.00
2018-07-23T06:02:14.231Z,4480.00
2018-07-23T06:03:14.214Z,4496.00
2018-07-23T06:04:14.200Z,4540.00
2018-07-23T06:05:14.183Z,4584.00
2018-07-23T06:06:14.214Z,4608.00
2018-07-23T06:07:14.154Z,4640.00
2018-07-23T06:08:14.140Z,4668.00
2018-07-23T06:09:14.131Z,4712.00
2018-07-23T06:10:14.126Z,4752.00
2018-07-23T06:11:14.102Z,4792.00
2018-07-23T06:12:14.097Z,4832.00
2018-07-23T06:13:14.096Z,4856.00
2018-07-23T06:14:14.063Z,4896.00
2018-07-23T06:15:14.057Z,4912.00
2018-07-23T06:16:14.039Z,4972.00
2018-07-23T06:17:14.029Z,4996.00
2018-07-23T06:18:14.017Z,5056.00
2018-07-23T06:19:14.005Z,5108.00
2018-07-23T06:20:13.996Z,5156.00
2018-07-23T06:21:13.980Z,5180.00
2018-07-23T06:22:13.972Z,5192.00
2018-07-23T06:23:13.962Z,5288.00
2018-07-23T06:24:13.949Z,5316.00
2018-07-23T06:25:13.947Z,5324.00
2018-07-23T06:26:13.928Z,5480.00
2018-07-23T06:27:13.925Z,5636.00
2018-07-23T06:28:13.908Z,5976.00
2018-07-23T06:29:13.897Z,5976.00
2018-07-23T06:30:13.892Z,6044.00
2018-07-23T06:31:13.881Z,6208.00
2018-07-23T06:32:13.898Z,6376.00
2018-07-23T06:33:13.861Z,6540.00
2018-07-23T06:34:13.850Z,6688.00
2018-07-23T06:35:13.845Z,6948.00
2018-07-23T06:36:13.833Z,7280.00
2018-07-23T06:37:13.825Z,7396.00
2018-07-23T06:38:13.823Z,7416.00
2018-07-23T06:39:13.808Z,7552.00
2018-07-23T06:40:13.799Z,7740.00
2018-07-23T06:41:13.801Z,8148.00
2018-07-23T06:42:13.780Z,8320.00
2018-07-23T06:43:13.837Z,8416.00
2018-07-23T06:44:13.792Z,8336.00
2018-07-23T06:45:13.757Z,8564.00
2018-07-23T06:46:13.750Z,9016.00
2018-07-23T06:47:13.739Z,9260.00
2018-07-23T06:48:13.734Z,9432.00
2018-07-23T06:49:13.727Z,8808.00
2018-07-23T06:50:14.497Z,8520.00
2018-07-23T06:52:36.962Z,10084.00
2018-07-23T06:53:36.788Z,9648.00
2018-07-23T06:54:36.770Z,10032.00
2018-07-23T06:55:36.738Z,10860.00
2018-07-23T06:56:45.409Z,11404.00
2018-07-23T06:57:36.759Z,11612.00
2018-07-23T06:58:38.721Z,11792.00
2018-07-23T06:59:39.000Z,12140.00
2018-07-23T07:02:00.491Z,11160.00
2018-07-23T07:02:59.832Z,10748.00
2018-07-23T07:05:23.015Z,13728.00
2018-07-23T07:07:58.510Z,12396.00
2018-07-23T07:10:12.352Z,14816.00
2018-07-23T07:12:34.584Z,16224.00
2018-07-23T07:14:57.750Z,14848.00
2018-07-23T07:17:20.758Z,3940.00
2018-07-23T07:19:55.884Z,3380.00
2018-07-23T07:20:44.030Z,3352.00
2018-07-23T07:21:43.821Z,3160.00
2018-07-23T07:24:16.892Z,3016.00
2018-07-23T07:25:06.754Z,2856.00
2018-07-23T07:29:03.122Z,2768.00
2018-07-23T07:31:26.147Z,2724.00
2018-07-23T07:33:49.471Z,2712.00
2018-07-23T07:34:49.429Z,2696.00
2018-07-23T07:35:49.303Z,2708.00
2018-07-23T07:36:49.037Z,2808.00
2018-07-23T07:37:49.093Z,3008.00
2018-07-23T07:38:49.027Z,3144.00
2018-07-23T07:39:49.025Z,3060.00
2018-07-23T07:42:22.766Z,2836.00
2018-07-23T07:43:12.120Z,2852.00
2018-07-23T07:45:35.218Z,2888.00
2018-07-23T07:47:59.359Z,2780.00
2018-07-23T07:49:10.474Z,2784.00
2018-07-23T07:51:32.402Z,2688.00
2018-07-23T07:53:46.379Z,2804.00
2018-07-23T07:56:19.553Z,2960.00
2018-07-23T07:57:09.785Z,2968.00
2018-07-23T07:58:09.401Z,2860.00
2018-07-23T08:00:33.449Z,2776.00
2018-07-23T08:02:56.668Z,2672.00
2018-07-23T08:05:19.679Z,2784.00
2018-07-23T08:07:41.664Z,3508.00
2018-07-23T08:10:05.319Z,3692.00
2018-07-23T08:11:04.657Z,3840.00
2018-07-23T08:13:27.739Z,4152.00
2018-07-23T08:16:01.304Z,3748.00
2018-07-23T08:18:24.153Z,3304.00
2018-07-23T08:20:35.861Z,3500.00
2018-07-23T08:21:36.060Z,3588.00
2018-07-23T08:22:35.838Z,3852.00
2018-07-23T08:25:00.129Z,4628.00
2018-07-23T08:27:22.988Z,4520.00
2018-07-23T08:29:47.014Z,3824.00
2018-07-23T08:30:56.000Z,3760.00
2018-07-23T08:31:55.027Z,3780.00
2018-07-23T08:33:41.376Z,3684.00
2018-07-23T08:36:03.429Z,3936.00
2018-07-23T08:38:36.896Z,4280.00
2018-07-23T08:39:26.499Z,4472.00
2018-07-23T08:40:26.366Z,4744.00
2018-07-23T08:42:49.926Z,5092.00
2018-07-23T08:43:49.531Z,4996.00
2018-07-23T08:46:12.400Z,4816.00
2018-07-23T08:48:35.522Z,4840.00
2018-07-23T08:49:35.493Z,4896.00
2018-07-23T08:50:35.418Z,4368.00
2018-07-23T08:52:58.447Z,3724.00
2018-07-23T08:53:58.454Z,3628.00
2018-07-23T08:56:21.478Z,3356.00
2018-07-23T08:58:44.735Z,3048.00
2018-07-23T09:01:07.682Z,2708.00
2018-07-23T09:03:30.790Z,2704.00
2018-07-23T09:05:53.722Z,2540.00
2018-07-23T09:06:53.869Z,2540.00
2018-07-23T09:09:17.045Z,2444.00
2018-07-23T09:10:16.868Z,2452.00
2018-07-23T09:12:49.909Z,2556.00
2018-07-23T09:13:39.907Z,2656.00
2018-07-23T09:14:39.712Z,2796.00
2018-07-23T09:15:39.777Z,2848.00
2018-07-23T09:16:39.705Z,2848.00
2018-07-23T09:19:03.863Z,2880.00
2018-07-23T09:21:26.954Z,2984.00
2018-07-23T09:24:00.070Z,3060.00
2018-07-23T09:26:23.033Z,3224.00
2018-07-23T09:28:35.907Z,3344.00
2018-07-23T09:31:10.193Z,3548.00
2018-07-23T09:31:58.938Z,3592.00
2018-07-23T09:34:22.104Z,3916.00
2018-07-23T09:36:55.331Z,4368.00
2018-07-23T09:39:08.167Z,4844.00
2018-07-23T09:40:07.994Z,5032.00
2018-07-23T09:42:41.130Z,5972.00
2018-07-23T09:44:54.195Z,6960.00
2018-07-23T09:47:27.300Z,7528.00
2018-07-23T09:49:50.221Z,8328.00
2018-07-23T09:52:13.282Z,9060.00
2018-07-23T09:54:36.338Z,9968.00
2018-07-23T09:56:49.804Z,10188.00
2018-07-23T09:57:49.291Z,10372.00
2018-07-23T10:00:12.388Z,9976.00
2018-07-23T10:02:45.439Z,10192.00
2018-07-23T10:05:08.492Z,10440.00
2018-07-23T10:05:58.393Z,10388.00
2018-07-23T10:06:58.414Z,10216.00
2018-07-23T10:09:31.506Z,9740.00
2018-07-23T10:11:55.564Z,9884.00
2018-07-23T10:14:17.541Z,10616.00
2018-07-23T10:15:07.478Z,10700.00
2018-07-23T10:17:30.580Z,10436.00
2018-07-23T10:20:03.659Z,9904.00
2018-07-23T10:20:53.603Z,9624.00
2018-07-23T10:21:53.571Z,9232.00
2018-07-23T10:22:53.553Z,9004.00
2018-07-23T10:23:53.597Z,8660.00
2018-07-23T10:26:26.698Z,7740.00
2018-07-23T10:27:16.571Z,7508.00
2018-07-23T10:28:16.602Z,7216.00
2018-07-23T10:29:16.610Z,6984.00
2018-07-23T10:30:16.557Z,6792.00
2018-07-23T10:31:16.580Z,6640.00
2018-07-23T10:32:16.540Z,6584.00
2018-07-23T10:33:16.532Z,6480.00
2018-07-23T10:34:25.232Z,6376.00
2018-07-23T10:36:21.027Z,6588.00
2018-07-23T10:37:11.035Z,6828.00
2018-07-23T10:39:44.115Z,8088.00
2018-07-23T10:40:34.014Z,8540.00
2018-07-23T10:41:34.091Z,8672.00
2018-07-23T10:42:33.984Z,8488.00
2018-07-23T10:43:33.964Z,8384.00
2018-07-23T10:45:57.074Z,8132.00
2018-07-23T10:48:20.085Z,8592.00
2018-07-23T10:50:43.120Z,7652.00
2018-07-23T10:51:43.085Z,7888.00
2018-07-23T10:54:06.162Z,8080.00
2018-07-23T10:56:30.261Z,8060.00
2018-07-23T10:58:53.412Z,7404.00
2018-07-23T11:01:28.260Z,7940.00
2018-07-23T11:02:16.277Z,8492.00
2018-07-23T11:04:39.335Z,8164.00
2018-07-23T11:07:12.460Z,6824.00
2018-07-23T11:08:02.359Z,6172.00
2018-07-23T11:09:02.356Z,5716.00
2018-07-23T11:11:35.516Z,5228.00
2018-07-23T11:12:25.423Z,5120.00
2018-07-23T11:13:25.379Z,5176.00
2018-07-23T11:15:58.502Z,5648.00
2018-07-23T11:18:11.465Z,5608.00
2018-07-23T11:20:44.690Z,5688.00
2018-07-23T11:21:34.483Z,5708.00
2018-07-23T11:22:34.464Z,5536.00
2018-07-23T11:24:57.530Z,5012.00
2018-07-23T11:25:57.514Z,4920.00
2018-07-23T11:28:20.605Z,4200.00
2018-07-23T11:29:20.527Z,4152.00
2018-07-23T11:31:54.181Z,4648.00
2018-07-23T11:32:43.575Z,4860.00
2018-07-23T11:33:53.098Z,5208.00
2018-07-23T11:35:38.001Z,5516.00
2018-07-23T11:36:38.006Z,5484.00
2018-07-23T11:39:01.014Z,5100.00
2018-07-23T11:40:00.923Z,4972.00
2018-07-23T11:41:00.939Z,5016.00
2018-07-23T11:43:32.653Z,5708.00
2018-07-23T11:45:57.161Z,6808.00
2018-07-23T11:48:10.091Z,7176.00
2018-07-23T11:49:10.095Z,7012.00
2018-07-23T11:50:10.031Z,6392.00
2018-07-23T11:52:43.186Z,6044.00
2018-07-23T11:54:56.189Z,4976.00
2018-07-23T11:57:19.241Z,5060.00
2018-07-23T11:59:43.651Z,6444.00
2018-07-23T12:00:52.324Z,6436.00
2018-07-23T12:02:37.858Z,5988.00
2018-07-23T12:03:37.459Z,6172.00
2018-07-23T12:04:37.510Z,6580.00
2018-07-23T12:07:10.541Z,7932.00
2018-07-23T12:08:00.466Z,7732.00
2018-07-23T12:10:23.526Z,7780.00
2018-07-23T12:12:56.648Z,8184.00
2018-07-23T12:13:55.307Z,8232.00
2018-07-23T12:15:51.024Z,8712.00
2018-07-23T12:16:40.961Z,9328.00
2018-07-23T12:19:03.487Z,9312.00
2018-07-23T12:20:02.993Z,9340.00
2018-07-23T12:22:26.061Z,9416.00
2018-07-23T12:24:59.215Z,9036.00
2018-07-23T12:27:12.592Z,8576.00
2018-07-23T12:29:35.170Z,7648.00
2018-07-23T12:30:35.170Z,7564.00
2018-07-23T12:31:35.137Z,6904.00
2018-07-23T12:34:08.331Z,7400.00
2018-07-23T12:36:21.305Z,8032.00
2018-07-23T12:38:54.363Z,8412.00
2018-07-23T12:39:53.066Z,8576.00
2018-07-23T12:41:48.753Z,8780.00
2018-07-23T12:42:38.693Z,8120.00
2018-07-23T12:43:38.649Z,7772.00
2018-07-23T12:44:38.648Z,8272.00
2018-07-23T12:45:38.684Z,8116.00
2018-07-23T12:48:01.691Z,8132.00
2018-07-23T12:49:01.682Z,8456.00
2018-07-23T12:51:34.824Z,11140.00
2018-07-23T12:52:24.735Z,11520.00
2018-07-23T12:53:24.715Z,11936.00
2018-07-23T12:55:57.836Z,12420.00
2018-07-23T12:56:47.800Z,12800.00
2018-07-23T12:59:20.924Z,13528.00
2018-07-23T13:00:10.845Z,14260.00
2018-07-23T13:01:10.838Z,14368.00
2018-07-23T13:03:33.901Z,14388.00
2018-07-23T13:06:06.989Z,20544.00
2018-07-23T13:08:31.080Z,26496.00
2018-07-23T13:10:53.074Z,30528.00
2018-07-23T13:11:43.012Z,23840.00
2018-07-23T13:12:42.999Z,32256.00
2018-07-23T13:15:16.139Z,17024.00
2018-07-23T13:17:39.184Z,31424.00
2018-07-23T13:18:29.438Z,34208.00
2018-07-23T13:19:29.132Z,32480.00
2018-07-23T13:22:02.312Z,29312.00
2018-07-23T13:22:52.223Z,28544.00
2018-07-23T13:23:52.195Z,28768.00
2018-07-23T13:24:52.211Z,30016.00
2018-07-23T13:25:52.231Z,30144.00
2018-07-23T13:26:52.212Z,30496.00
2018-07-23T13:27:52.192Z,31808.00
2018-07-23T13:28:52.197Z,31584.00
2018-07-23T13:29:52.195Z,32192.00
2018-07-23T13:32:25.406Z,35008.00
2018-07-23T13:33:15.440Z,35168.00
2018-07-23T13:35:38.357Z,35168.00
2018-07-23T13:36:38.345Z,34656.00
2018-07-23T13:37:38.348Z,33888.00
2018-07-23T13:38:38.363Z,34304.00
2018-07-23T13:39:38.313Z,34752.00
2018-07-23T13:40:38.312Z,34400.00
2018-07-23T13:43:11.450Z,32672.00
2018-07-23T13:44:02.354Z,31616.00
2018-07-23T13:45:01.409Z,33760.00
2018-07-23T13:47:34.528Z,30880.00
2018-07-23T13:49:47.537Z,32928.00
2018-07-23T13:52:10.586Z,32576.00
2018-07-23T13:53:10.571Z,34528.00
2018-07-23T13:54:10.572Z,34400.00
2018-07-23T13:55:10.577Z,34976.00
2018-07-23T13:56:10.577Z,34496.00
2018-07-23T13:57:10.570Z,34208.00
2018-07-23T13:58:10.584Z,28704.00
2018-07-23T14:00:43.895Z,32672.00
2018-07-23T14:02:56.705Z,34304.00
2018-07-23T14:03:56.706Z,35360.00
2018-07-23T14:04:56.695Z,35936.00
2018-07-23T14:05:56.713Z,36896.00
2018-07-23T14:06:56.680Z,34272.00
2018-07-23T14:07:56.725Z,31104.00
2018-07-23T14:09:05.421Z,32960.00
2018-07-23T14:11:01.225Z,34976.00
2018-07-23T14:13:24.259Z,35552.00
2018-07-23T14:14:22.986Z,35520.00
2018-07-23T14:15:14.405Z,35968.00
2018-07-23T14:17:47.371Z,36064.00
2018-07-23T14:18:37.275Z,38080.00
2018-07-23T14:19:37.305Z,38752.00
2018-07-23T14:22:00.624Z,43712.00
2018-07-23T14:23:00.365Z,42048.00
2018-07-23T14:24:00.360Z,40480.00
2018-07-23T14:25:00.353Z,39008.00
2018-07-23T14:26:00.374Z,40416.00
2018-07-23T14:27:00.392Z,12344.00
2018-07-23T14:28:00.358Z,10748.00
2018-07-23T14:29:00.358Z,27872.00
2018-07-23T14:30:00.378Z,36416.00
2018-07-23T14:31:00.363Z,34368.00
2018-07-23T14:32:00.365Z,36800.00
2018-07-23T14:34:41.618Z,13320.00
2018-07-23T14:35:32.505Z,8700.00
2018-07-23T14:37:55.606Z,9076.00
2018-07-23T14:38:55.588Z,10208.00
2018-07-23T14:39:55.565Z,10616.00
2018-07-23T14:42:18.681Z,29248.00
2018-07-23T14:43:18.626Z,27104.00
2018-07-23T14:45:50.750Z,17184.00
2018-07-23T14:46:40.710Z,13144.00
2018-07-23T14:47:40.712Z,9580.00
2018-07-23T14:48:40.711Z,17376.00
2018-07-23T14:49:40.748Z,19680.00
2018-07-23T14:50:40.754Z,8816.00
2018-07-23T14:53:13.847Z,8944.00
2018-07-23T14:54:03.830Z,12876.00
2018-07-23T14:56:36.918Z,8096.00
2018-07-23T14:58:50.006Z,8000.00
2018-07-23T14:59:49.910Z,7332.00
2018-07-23T15:00:49.888Z,6892.00
2018-07-23T15:01:49.887Z,6736.00
2018-07-23T15:04:23.546Z,7360.00
2018-07-23T15:06:46.937Z,27904.00
2018-07-23T15:07:37.045Z,7300.00
2018-07-23T15:08:36.928Z,7168.00
2018-07-23T15:11:10.185Z,7968.00
2018-07-23T15:13:33.054Z,9564.00
2018-07-23T15:15:46.160Z,8616.00
2018-07-23T15:18:08.274Z,26720.00
2018-07-23T15:20:31.296Z,8692.00
2018-07-23T15:23:04.274Z,8252.00
2018-07-23T15:23:54.206Z,8336.00
2018-07-23T15:24:54.183Z,10000.00
2018-07-23T15:25:54.205Z,17376.00
2018-07-23T15:26:54.174Z,23008.00
2018-07-23T15:27:54.174Z,20256.00
2018-07-23T15:28:54.162Z,19904.00
2018-07-23T15:29:54.184Z,20704.00
2018-07-23T15:30:54.200Z,8540.00
2018-07-23T15:31:54.156Z,8492.00
2018-07-23T15:32:54.145Z,8064.00
2018-07-23T15:33:54.161Z,12736.00
2018-07-23T15:34:54.141Z,7088.00
2018-07-23T15:35:54.170Z,7036.00
2018-07-23T15:36:54.125Z,7212.00
2018-07-23T15:37:54.123Z,6468.00
2018-07-23T15:38:54.153Z,18816.00
2018-07-23T15:39:54.112Z,15872.00
2018-07-23T15:40:54.107Z,14784.00
2018-07-23T15:41:54.107Z,21248.00
2018-07-23T15:42:54.161Z,19072.00
2018-07-23T15:43:54.166Z,19680.00
2018-07-23T15:44:54.249Z,10700.00
2018-07-23T15:45:54.192Z,21152.00
2018-07-23T15:46:54.082Z,19392.00
2018-07-23T15:47:54.075Z,13824.00